Barronett, Wisconsin
Current Conditions -  °F | °C
As of 9:55 PM on Saturday 20 Dec 2014 (Local Time) from KUBE Reporting Station
Haze Haze  
Wind Chill: 21°   Ceiling: 900
Heat Index: 30°   Visibility: 5mi
Dew Point: 28°   Wind: 10mph
Humidity: 93%   Direction: 180°S
Pressure: 30.09"   Gusts: NA
Location:  45.64°N, 91.99°W
Report Text: KUBE 210355Z AUTO 18009KT 5SM BR OVC009 M01/M02 A3009 RMK AO2
Loading
Personal Weather Stations






























Interactive Weather Map New forecast layout! Learn more

10-Day Weather Forecast

Advertisements
Track Severe Weather on mobile